sensor_id;sensor_type;location;lat;lon;timestamp;temperature;humidity
23231;DHT22;11784;49.818;8.632;2023-04-24T00:01:24;15.20;84.60
23231;DHT22;11784;49.818;8.632;2023-04-24T00:03:49;15.20;84.40
23231;DHT22;11784;49.818;8.632;2023-04-24T00:06:15;15.20;84.20
23231;DHT22;11784;49.818;8.632;2023-04-24T00:08:42;15.20;83.90
23231;DHT22;11784;49.818;8.632;2023-04-24T00:11:08;15.20;84.00
23231;DHT22;11784;49.818;8.632;2023-04-24T00:13:35;15.20;84.20
23231;DHT22;11784;49.818;8.632;2023-04-24T00:16:00;15.20;84.50
23231;DHT22;11784;49.818;8.632;2023-04-24T00:18:26;15.20;84.60
23231;DHT22;11784;49.818;8.632;2023-04-24T00:20:52;15.20;85.00
23231;DHT22;11784;49.818;8.632;2023-04-24T00:23:18;15.20;84.60
23231;DHT22;11784;49.818;8.632;2023-04-24T00:25:43;15.30;85.00
23231;DHT22;11784;49.818;8.632;2023-04-24T00:28:09;15.30;85.10
23231;DHT22;11784;49.818;8.632;2023-04-24T00:30:34;15.20;84.90
23231;DHT22;11784;49.818;8.632;2023-04-24T00:33:00;15.20;84.90
23231;DHT22;11784;49.818;8.632;2023-04-24T00:35:25;15.20;85.40
23231;DHT22;11784;49.818;8.632;2023-04-24T00:37:51;15.20;85.50
23231;DHT22;11784;49.818;8.632;2023-04-24T00:40:16;15.20;85.90
23231;DHT22;11784;49.818;8.632;2023-04-24T00:42:43;15.30;86.30
23231;DHT22;11784;49.818;8.632;2023-04-24T00:45:09;15.30;86.50
23231;DHT22;11784;49.818;8.632;2023-04-24T00:47:35;15.20;86.50
23231;DHT22;11784;49.818;8.632;2023-04-24T00:50:02;15.20;86.30
23231;DHT22;11784;49.818;8.632;2023-04-24T00:52:28;15.20;86.60
23231;DHT22;11784;49.818;8.632;2023-04-24T00:54:53;15.20;87.00
23231;DHT22;11784;49.818;8.632;2023-04-24T00:57:19;15.20;86.80
23231;DHT22;11784;49.818;8.632;2023-04-24T00:59:45;15.10;87.00
23231;DHT22;11784;49.818;8.632;2023-04-24T01:02:11;15.10;87.70
23231;DHT22;11784;49.818;8.632;2023-04-24T01:04:37;15.10;87.50
23231;DHT22;11784;49.818;8.632;2023-04-24T01:07:03;15.10;87.40
23231;DHT22;11784;49.818;8.632;2023-04-24T01:09:36;15.10;87.00
23231;DHT22;11784;49.818;8.632;2023-04-24T01:12:02;15.10;87.10
23231;DHT22;11784;49.818;8.632;2023-04-24T01:14:28;15.10;87.10
23231;DHT22;11784;49.818;8.632;2023-04-24T01:16:53;15.00;87.10
23231;DHT22;11784;49.818;8.632;2023-04-24T01:19:19;15.00;86.90
23231;DHT22;11784;49.818;8.632;2023-04-24T01:21:47;15.00;87.20
23231;DHT22;11784;49.818;8.632;2023-04-24T01:24:16;15.00;87.20
23231;DHT22;11784;49.818;8.632;2023-04-24T01:26:41;14.90;87.10
23231;DHT22;11784;49.818;8.632;2023-04-24T01:29:07;14.90;87.30
23231;DHT22;11784;49.818;8.632;2023-04-24T01:31:33;14.80;87.30
23231;DHT22;11784;49.818;8.632;2023-04-24T01:33:59;14.80;86.80
23231;DHT22;11784;49.818;8.632;2023-04-24T01:36:27;14.80;86.90
23231;DHT22;11784;49.818;8.632;2023-04-24T01:38:53;14.80;87.00
23231;DHT22;11784;49.818;8.632;2023-04-24T01:41:19;14.80;87.60
23231;DHT22;11784;49.818;8.632;2023-04-24T01:43:45;14.70;87.50
23231;DHT22;11784;49.818;8.632;2023-04-24T01:46:11;14.70;87.70
23231;DHT22;11784;49.818;8.632;2023-04-24T01:48:36;14.80;87.90
23231;DHT22;11784;49.818;8.632;2023-04-24T01:51:02;14.80;87.60
23231;DHT22;11784;49.818;8.632;2023-04-24T01:53:28;14.80;87.40
23231;DHT22;11784;49.818;8.632;2023-04-24T01:55:53;14.80;87.20
23231;DHT22;11784;49.818;8.632;2023-04-24T01:58:19;14.80;87.00
23231;DHT22;11784;49.818;8.632;2023-04-24T02:00:44;14.80;86.80
23231;DHT22;11784;49.818;8.632;2023-04-24T02:03:10;14.90;86.70
23231;DHT22;11784;49.818;8.632;2023-04-24T02:05:35;14.90;86.90
23231;DHT22;11784;49.818;8.632;2023-04-24T02:08:02;14.90;87.20
23231;DHT22;11784;49.818;8.632;2023-04-24T02:10:27;14.90;87.20
23231;DHT22;11784;49.818;8.632;2023-04-24T02:12:53;14.90;87.10
23231;DHT22;11784;49.818;8.632;2023-04-24T02:15:18;14.90;87.10
23231;DHT22;11784;49.818;8.632;2023-04-24T02:17:44;14.90;87.20
23231;DHT22;11784;49.818;8.632;2023-04-24T02:20:09;15.00;87.10
23231;DHT22;11784;49.818;8.632;2023-04-24T02:22:35;15.00;87.00
23231;DHT22;11784;49.818;8.632;2023-04-24T02:25:01;15.00;87.10
23231;DHT22;11784;49.818;8.632;2023-04-24T02:27:26;15.00;87.40
23231;DHT22;11784;49.818;8.632;2023-04-24T02:29:52;15.00;87.40
23231;DHT22;11784;49.818;8.632;2023-04-24T02:32:17;15.00;87.70
23231;DHT22;11784;49.818;8.632;2023-04-24T02:34:43;15.00;88.00
23231;DHT22;11784;49.818;8.632;2023-04-24T02:37:08;15.00;88.60
23231;DHT22;11784;49.818;8.632;2023-04-24T02:39:35;14.90;89.00
23231;DHT22;11784;49.818;8.632;2023-04-24T02:42:00;14.80;89.20
23231;DHT22;11784;49.818;8.632;2023-04-24T02:44:26;14.90;89.80
23231;DHT22;11784;49.818;8.632;2023-04-24T02:46:52;14.90;90.00
23231;DHT22;11784;49.818;8.632;2023-04-24T02:49:17;14.90;90.10
23231;DHT22;11784;49.818;8.632;2023-04-24T02:51:43;14.80;90.20
23231;DHT22;11784;49.818;8.632;2023-04-24T02:54:09;14.80;90.20
23231;DHT22;11784;49.818;8.632;2023-04-24T02:56:37;14.80;90.20
23231;DHT22;11784;49.818;8.632;2023-04-24T02:59:03;14.80;90.20
23231;DHT22;11784;49.818;8.632;2023-04-24T03:01:28;14.80;90.30
23231;DHT22;11784;49.818;8.632;2023-04-24T03:03:54;14.80;90.40
23231;DHT22;11784;49.818;8.632;2023-04-24T03:06:19;14.80;90.70
23231;DHT22;11784;49.818;8.632;2023-04-24T03:08:46;14.80;90.80
23231;DHT22;11784;49.818;8.632;2023-04-24T03:11:11;14.80;90.90
23231;DHT22;11784;49.818;8.632;2023-04-24T03:13:37;14.80;90.80
23231;DHT22;11784;49.818;8.632;2023-04-24T03:16:02;14.80;90.80
23231;DHT22;11784;49.818;8.632;2023-04-24T03:18:28;14.70;90.70
23231;DHT22;11784;49.818;8.632;2023-04-24T03:20:53;14.70;91.00
23231;DHT22;11784;49.818;8.632;2023-04-24T03:23:19;14.70;91.20
23231;DHT22;11784;49.818;8.632;2023-04-24T03:25:44;14.60;91.40
23231;DHT22;11784;49.818;8.632;2023-04-24T03:28:10;14.70;91.80
23231;DHT22;11784;49.818;8.632;2023-04-24T03:30:36;14.60;91.90
23231;DHT22;11784;49.818;8.632;2023-04-24T03:33:01;14.70;92.00
23231;DHT22;11784;49.818;8.632;2023-04-24T03:35:27;14.60;92.20
23231;DHT22;11784;49.818;8.632;2023-04-24T03:37:52;14.60;92.20
23231;DHT22;11784;49.818;8.632;2023-04-24T03:40:18;14.60;92.40
23231;DHT22;11784;49.818;8.632;2023-04-24T03:42:43;14.60;92.50
23231;DHT22;11784;49.818;8.632;2023-04-24T03:45:09;14.60;92.50
23231;DHT22;11784;49.818;8.632;2023-04-24T03:47:35;14.50;92.40
23231;DHT22;11784;49.818;8.632;2023-04-24T03:50:01;14.60;92.40
23231;DHT22;11784;49.818;8.632;2023-04-24T03:52:27;14.50;92.70
23231;DHT22;11784;49.818;8.632;2023-04-24T03:54:53;14.50;92.70
23231;DHT22;11784;49.818;8.632;2023-04-24T03:57:18;14.50;93.10
23231;DHT22;11784;49.818;8.632;2023-04-24T03:59:44;14.50;92.90
23231;DHT22;11784;49.818;8.632;2023-04-24T04:02:10;14.50;92.80
23231;DHT22;11784;49.818;8.632;2023-04-24T04:04:35;14.50;92.90
23231;DHT22;11784;49.818;8.632;2023-04-24T04:07:01;14.50;92.80
23231;DHT22;11784;49.818;8.632;2023-04-24T04:09:28;14.40;92.70
23231;DHT22;11784;49.818;8.632;2023-04-24T04:11:53;14.40;92.60
23231;DHT22;11784;49.818;8.632;2023-04-24T04:14:19;14.30;92.40
23231;DHT22;11784;49.818;8.632;2023-04-24T04:16:44;14.30;92.30
23231;DHT22;11784;49.818;8.632;2023-04-24T04:19:10;14.20;92.20
23231;DHT22;11784;49.818;8.632;2023-04-24T04:21:36;14.20;92.10
23231;DHT22;11784;49.818;8.632;2023-04-24T04:24:01;14.10;92.00
23231;DHT22;11784;49.818;8.632;2023-04-24T04:26:27;14.00;91.90
23231;DHT22;11784;49.818;8.632;2023-04-24T04:28:52;14.00;92.10
23231;DHT22;11784;49.818;8.632;2023-04-24T04:31:19;13.90;92.00
23231;DHT22;11784;49.818;8.632;2023-04-24T04:33:45;13.90;92.00
23231;DHT22;11784;49.818;8.632;2023-04-24T04:36:10;13.80;91.90
23231;DHT22;11784;49.818;8.632;2023-04-24T04:38:37;13.80;91.90
23231;DHT22;11784;49.818;8.632;2023-04-24T04:41:03;13.80;91.90
23231;DHT22;11784;49.818;8.632;2023-04-24T04:43:28;13.80;91.70
23231;DHT22;11784;49.818;8.632;2023-04-24T04:45:54;13.80;91.60
23231;DHT22;11784;49.818;8.632;2023-04-24T04:48:21;13.80;91.60
23231;DHT22;11784;49.818;8.632;2023-04-24T04:50:47;13.80;91.60
23231;DHT22;11784;49.818;8.632;2023-04-24T04:53:13;13.80;91.60
23231;DHT22;11784;49.818;8.632;2023-04-24T04:55:38;13.70;91.70
23231;DHT22;11784;49.818;8.632;2023-04-24T04:58:04;13.70;91.60
23231;DHT22;11784;49.818;8.632;2023-04-24T05:00:29;13.70;91.50
23231;DHT22;11784;49.818;8.632;2023-04-24T05:03:00;13.70;91.90
23231;DHT22;11784;49.818;8.632;2023-04-24T05:05:26;13.70;91.20
23231;DHT22;11784;49.818;8.632;2023-04-24T05:07:51;13.70;91.20
23231;DHT22;11784;49.818;8.632;2023-04-24T05:10:17;13.70;91.20
23231;DHT22;11784;49.818;8.632;2023-04-24T05:12:42;13.70;91.20
23231;DHT22;11784;49.818;8.632;2023-04-24T05:15:08;13.70;91.50
23231;DHT22;11784;49.818;8.632;2023-04-24T05:17:34;13.70;91.50
23231;DHT22;11784;49.818;8.632;2023-04-24T05:19:59;13.80;91.20
23231;DHT22;11784;49.818;8.632;2023-04-24T05:22:25;13.80;91.00
23231;DHT22;11784;49.818;8.632;2023-04-24T05:24:51;13.80;91.00
23231;DHT22;11784;49.818;8.632;2023-04-24T05:27:16;13.90;90.60
23231;DHT22;11784;49.818;8.632;2023-04-24T05:29:42;13.90;90.80
23231;DHT22;11784;49.818;8.632;2023-04-24T05:32:08;13.80;90.60
23231;DHT22;11784;49.818;8.632;2023-04-24T05:34:34;13.90;90.60
23231;DHT22;11784;49.818;8.632;2023-04-24T05:37:00;13.80;90.50
23231;DHT22;11784;49.818;8.632;2023-04-24T05:39:25;13.90;90.40
23231;DHT22;11784;49.818;8.632;2023-04-24T05:41:52;13.90;90.10
23231;DHT22;11784;49.818;8.632;2023-04-24T05:44:17;14.00;89.90
23231;DHT22;11784;49.818;8.632;2023-04-24T05:46:43;14.00;88.70
23231;DHT22;11784;49.818;8.632;2023-04-24T05:49:08;14.00;88.00
23231;DHT22;11784;49.818;8.632;2023-04-24T05:51:34;14.10;87.90
23231;DHT22;11784;49.818;8.632;2023-04-24T05:54:00;14.10;87.20
23231;DHT22;11784;49.818;8.632;2023-04-24T05:56:26;14.10;87.70
23231;DHT22;11784;49.818;8.632;2023-04-24T05:58:52;14.10;87.40
23231;DHT22;11784;49.818;8.632;2023-04-24T06:01:17;14.10;87.30
23231;DHT22;11784;49.818;8.632;2023-04-24T06:03:43;14.10;86.10
23231;DHT22;11784;49.818;8.632;2023-04-24T06:06:09;14.00;85.90
23231;DHT22;11784;49.818;8.632;2023-04-24T06:08:35;14.00;85.60
23231;DHT22;11784;49.818;8.632;2023-04-24T06:11:01;14.00;84.20
23231;DHT22;11784;49.818;8.632;2023-04-24T06:13:26;14.00;82.70
23231;DHT22;11784;49.818;8.632;2023-04-24T06:15:52;14.00;83.30
23231;DHT22;11784;49.818;8.632;2023-04-24T06:18:19;13.90;82.20
23231;DHT22;11784;49.818;8.632;2023-04-24T06:20:45;13.90;81.20
23231;DHT22;11784;49.818;8.632;2023-04-24T06:23:11;13.90;81.80
23231;DHT22;11784;49.818;8.632;2023-04-24T06:25:36;13.90;81.60
23231;DHT22;11784;49.818;8.632;2023-04-24T06:28:02;13.90;81.80
23231;DHT22;11784;49.818;8.632;2023-04-24T06:30:28;13.90;82.00
23231;DHT22;11784;49.818;8.632;2023-04-24T06:32:54;13.90;81.70
23231;DHT22;11784;49.818;8.632;2023-04-24T06:35:19;13.90;81.50
23231;DHT22;11784;49.818;8.632;2023-04-24T06:37:45;13.90;81.30
23231;DHT22;11784;49.818;8.632;2023-04-24T06:40:11;13.90;81.10
23231;DHT22;11784;49.818;8.632;2023-04-24T06:42:36;13.90;81.80
23231;DHT22;11784;49.818;8.632;2023-04-24T06:45:03;13.90;81.40
23231;DHT22;11784;49.818;8.632;2023-04-24T06:47:29;13.90;82.00
23231;DHT22;11784;49.818;8.632;2023-04-24T06:49:54;13.90;81.30
23231;DHT22;11784;49.818;8.632;2023-04-24T06:52:20;13.90;80.90
23231;DHT22;11784;49.818;8.632;2023-04-24T06:54:46;13.90;81.20
23231;DHT22;11784;49.818;8.632;2023-04-24T06:57:11;13.90;81.80
23231;DHT22;11784;49.818;8.632;2023-04-24T06:59:37;13.90;81.50
23231;DHT22;11784;49.818;8.632;2023-04-24T07:02:03;14.00;81.10
23231;DHT22;11784;49.818;8.632;2023-04-24T07:04:29;14.00;81.40
23231;DHT22;11784;49.818;8.632;2023-04-24T07:06:55;14.00;81.40
23231;DHT22;11784;49.818;8.632;2023-04-24T07:09:24;14.00;80.50
23231;DHT22;11784;49.818;8.632;2023-04-24T07:11:51;14.10;81.10
23231;DHT22;11784;49.818;8.632;2023-04-24T07:14:17;14.10;80.80
23231;DHT22;11784;49.818;8.632;2023-04-24T07:16:43;14.20;81.40
23231;DHT22;11784;49.818;8.632;2023-04-24T07:19:09;14.20;80.40
23231;DHT22;11784;49.818;8.632;2023-04-24T07:21:34;14.30;79.00
23231;DHT22;11784;49.818;8.632;2023-04-24T07:24:00;14.40;80.00
23231;DHT22;11784;49.818;8.632;2023-04-24T07:26:26;14.50;79.30
23231;DHT22;11784;49.818;8.632;2023-04-24T07:28:52;14.60;78.90
23231;DHT22;11784;49.818;8.632;2023-04-24T07:31:17;14.70;78.20
23231;DHT22;11784;49.818;8.632;2023-04-24T07:33:43;14.90;77.50
23231;DHT22;11784;49.818;8.632;2023-04-24T07:36:08;14.90;76.70
23231;DHT22;11784;49.818;8.632;2023-04-24T07:38:41;14.90;76.10
23231;DHT22;11784;49.818;8.632;2023-04-24T07:41:06;15.00;76.30
23231;DHT22;11784;49.818;8.632;2023-04-24T07:43:32;14.90;76.00
23231;DHT22;11784;49.818;8.632;2023-04-24T07:45:57;15.00;77.10
23231;DHT22;11784;49.818;8.632;2023-04-24T07:48:23;15.00;76.00
23231;DHT22;11784;49.818;8.632;2023-04-24T07:50:50;14.90;76.30
23231;DHT22;11784;49.818;8.632;2023-04-24T07:53:16;15.00;77.30
23231;DHT22;11784;49.818;8.632;2023-04-24T07:55:41;15.00;78.00
23231;DHT22;11784;49.818;8.632;2023-04-24T07:58:07;15.10;76.90
23231;DHT22;11784;49.818;8.632;2023-04-24T08:00:32;15.10;77.40
23231;DHT22;11784;49.818;8.632;2023-04-24T08:02:58;15.20;75.50
23231;DHT22;11784;49.818;8.632;2023-04-24T08:05:23;15.20;74.70
23231;DHT22;11784;49.818;8.632;2023-04-24T08:07:50;15.10;68.60
23231;DHT22;11784;49.818;8.632;2023-04-24T08:10:16;15.00;65.80
23231;DHT22;11784;49.818;8.632;2023-04-24T08:12:41;14.90;66.10
23231;DHT22;11784;49.818;8.632;2023-04-24T08:15:08;14.80;67.20
23231;DHT22;11784;49.818;8.632;2023-04-24T08:17:34;14.80;68.80
23231;DHT22;11784;49.818;8.632;2023-04-24T08:20:01;14.80;70.60
23231;DHT22;11784;49.818;8.632;2023-04-24T08:22:27;14.90;68.80
23231;DHT22;11784;49.818;8.632;2023-04-24T08:24:54;15.00;69.50
23231;DHT22;11784;49.818;8.632;2023-04-24T08:27:19;15.10;67.40
23231;DHT22;11784;49.818;8.632;2023-04-24T08:29:45;15.20;67.60
23231;DHT22;11784;49.818;8.632;2023-04-24T08:32:10;15.30;67.40
23231;DHT22;11784;49.818;8.632;2023-04-24T08:34:36;15.30;66.40
23231;DHT22;11784;49.818;8.632;2023-04-24T08:37:02;15.30;65.50
23231;DHT22;11784;49.818;8.632;2023-04-24T08:39:27;15.30;64.90
23231;DHT22;11784;49.818;8.632;2023-04-24T08:41:55;15.20;64.90
23231;DHT22;11784;49.818;8.632;2023-04-24T08:44:21;15.10;64.70
23231;DHT22;11784;49.818;8.632;2023-04-24T08:46:48;15.00;65.30
23231;DHT22;11784;49.818;8.632;2023-04-24T08:49:14;15.10;66.80
23231;DHT22;11784;49.818;8.632;2023-04-24T08:51:44;15.20;67.10
23231;DHT22;11784;49.818;8.632;2023-04-24T08:54:11;15.20;67.10
23231;DHT22;11784;49.818;8.632;2023-04-24T08:56:38;15.30;65.90
23231;DHT22;11784;49.818;8.632;2023-04-24T08:59:06;15.40;63.70
23231;DHT22;11784;49.818;8.632;2023-04-24T09:01:32;15.40;63.50
23231;DHT22;11784;49.818;8.632;2023-04-24T09:04:03;15.50;64.70
23231;DHT22;11784;49.818;8.632;2023-04-24T09:06:30;15.50;62.70
23231;DHT22;11784;49.818;8.632;2023-04-24T09:08:56;15.50;61.90
23231;DHT22;11784;49.818;8.632;2023-04-24T09:11:24;15.40;61.90
23231;DHT22;11784;49.818;8.632;2023-04-24T09:13:50;15.40;63.60
23231;DHT22;11784;49.818;8.632;2023-04-24T09:16:16;15.40;62.40
23231;DHT22;11784;49.818;8.632;2023-04-24T09:18:42;15.40;63.80
23231;DHT22;11784;49.818;8.632;2023-04-24T09:21:08;15.50;64.10
23231;DHT22;11784;49.818;8.632;2023-04-24T09:23:34;15.50;63.10
23231;DHT22;11784;49.818;8.632;2023-04-24T09:26:01;15.50;63.10
23231;DHT22;11784;49.818;8.632;2023-04-24T09:28:31;15.60;63.50
23231;DHT22;11784;49.818;8.632;2023-04-24T09:33:29;15.50;62.70
23231;DHT22;11784;49.818;8.632;2023-04-24T09:35:54;15.50;63.30
23231;DHT22;11784;49.818;8.632;2023-04-24T09:38:36;15.50;63.50
23231;DHT22;11784;49.818;8.632;2023-04-24T09:41:06;15.40;63.10
23231;DHT22;11784;49.818;8.632;2023-04-24T09:43:32;15.40;64.10
23231;DHT22;11784;49.818;8.632;2023-04-24T09:45:59;15.30;64.50
23231;DHT22;11784;49.818;8.632;2023-04-24T09:48:35;15.20;63.60
23231;DHT22;11784;49.818;8.632;2023-04-24T09:51:03;15.20;64.60
23231;DHT22;11784;49.818;8.632;2023-04-24T09:53:30;15.10;64.50
23231;DHT22;11784;49.818;8.632;2023-04-24T09:55:56;15.10;65.40
23231;DHT22;11784;49.818;8.632;2023-04-24T09:58:27;15.00;65.40
23231;DHT22;11784;49.818;8.632;2023-04-24T10:00:54;15.00;65.30
23231;DHT22;11784;49.818;8.632;2023-04-24T10:03:22;15.00;65.20
23231;DHT22;11784;49.818;8.632;2023-04-24T10:05:48;15.00;66.00
23231;DHT22;11784;49.818;8.632;2023-04-24T10:08:16;15.10;66.60
23231;DHT22;11784;49.818;8.632;2023-04-24T10:10:44;15.20;66.30
23231;DHT22;11784;49.818;8.632;2023-04-24T10:13:10;15.30;67.10
23231;DHT22;11784;49.818;8.632;2023-04-24T10:15:37;15.50;66.40
23231;DHT22;11784;49.818;8.632;2023-04-24T10:18:04;15.60;66.30
23231;DHT22;11784;49.818;8.632;2023-04-24T10:20:35;15.60;64.50
23231;DHT22;11784;49.818;8.632;2023-04-24T10:23:01;15.60;63.90
23231;DHT22;11784;49.818;8.632;2023-04-24T10:25:28;15.50;64.30
23231;DHT22;11784;49.818;8.632;2023-04-24T10:27:56;15.50;65.00
23231;DHT22;11784;49.818;8.632;2023-04-24T10:30:28;15.40;64.30
23231;DHT22;11784;49.818;8.632;2023-04-24T10:32:53;15.30;65.30
23231;DHT22;11784;49.818;8.632;2023-04-24T10:35:20;15.30;65.60
23231;DHT22;11784;49.818;8.632;2023-04-24T10:37:55;15.20;65.90
23231;DHT22;11784;49.818;8.632;2023-04-24T10:40:30;15.10;66.40
23231;DHT22;11784;49.818;8.632;2023-04-24T10:42:56;15.10;66.90
23231;DHT22;11784;49.818;8.632;2023-04-24T10:45:23;15.20;67.60
23231;DHT22;11784;49.818;8.632;2023-04-24T10:48:08;15.20;67.00
23231;DHT22;11784;49.818;8.632;2023-04-24T10:50:47;15.30;66.40
23231;DHT22;11784;49.818;8.632;2023-04-24T10:53:22;15.40;67.00
23231;DHT22;11784;49.818;8.632;2023-04-24T10:56:12;15.50;65.90
23231;DHT22;11784;49.818;8.632;2023-04-24T10:58:50;15.70;65.60
23231;DHT22;11784;49.818;8.632;2023-04-24T11:01:31;15.80;64.70
23231;DHT22;11784;49.818;8.632;2023-04-24T11:04:00;15.90;64.60
23231;DHT22;11784;49.818;8.632;2023-04-24T11:06:34;16.00;64.80
23231;DHT22;11784;49.818;8.632;2023-04-24T11:09:08;16.00;62.90
23231;DHT22;11784;49.818;8.632;2023-04-24T11:11:36;15.90;62.80
23231;DHT22;11784;49.818;8.632;2023-04-24T11:14:04;15.80;62.70
23231;DHT22;11784;49.818;8.632;2023-04-24T11:16:37;15.60;62.70
23231;DHT22;11784;49.818;8.632;2023-04-24T11:21:46;15.40;63.90
23231;DHT22;11784;49.818;8.632;2023-04-24T11:27:15;15.10;64.90
23231;DHT22;11784;49.818;8.632;2023-04-24T11:34:56;14.90;65.70
23231;DHT22;11784;49.818;8.632;2023-04-24T11:37:29;14.80;65.20
23231;DHT22;11784;49.818;8.632;2023-04-24T11:39:56;14.80;65.00
23231;DHT22;11784;49.818;8.632;2023-04-24T11:42:22;14.70;65.90
23231;DHT22;11784;49.818;8.632;2023-04-24T11:44:55;14.60;66.20
23231;DHT22;11784;49.818;8.632;2023-04-24T11:47:31;14.70;66.30
23231;DHT22;11784;49.818;8.632;2023-04-24T11:49:59;14.70;66.10
23231;DHT22;11784;49.818;8.632;2023-04-24T11:52:26;14.70;66.60
23231;DHT22;11784;49.818;8.632;2023-04-24T11:54:52;14.80;66.70
23231;DHT22;11784;49.818;8.632;2023-04-24T11:57:20;14.80;65.90
23231;DHT22;11784;49.818;8.632;2023-04-24T11:59:46;14.70;66.40
23231;DHT22;11784;49.818;8.632;2023-04-24T12:02:25;14.70;67.00
23231;DHT22;11784;49.818;8.632;2023-04-24T12:04:54;14.70;66.60
23231;DHT22;11784;49.818;8.632;2023-04-24T12:07:21;14.80;67.80
23231;DHT22;11784;49.818;8.632;2023-04-24T12:09:55;14.60;71.20
23231;DHT22;11784;49.818;8.632;2023-04-24T12:12:24;14.50;76.00
23231;DHT22;11784;49.818;8.632;2023-04-24T12:14:57;14.40;79.50
23231;DHT22;11784;49.818;8.632;2023-04-24T12:17:25;14.30;82.10
23231;DHT22;11784;49.818;8.632;2023-04-24T12:19:51;14.20;82.60
23231;DHT22;11784;49.818;8.632;2023-04-24T12:22:16;14.20;84.20
23231;DHT22;11784;49.818;8.632;2023-04-24T12:25:04;14.30;82.60
23231;DHT22;11784;49.818;8.632;2023-04-24T12:27:31;14.40;81.30
23231;DHT22;11784;49.818;8.632;2023-04-24T12:29:59;14.40;78.20
23231;DHT22;11784;49.818;8.632;2023-04-24T12:32:25;14.50;77.20
23231;DHT22;11784;49.818;8.632;2023-04-24T12:34:52;14.50;77.20
23231;DHT22;11784;49.818;8.632;2023-04-24T12:37:17;14.60;77.30
23231;DHT22;11784;49.818;8.632;2023-04-24T12:42:27;14.70;74.30
23231;DHT22;11784;49.818;8.632;2023-04-24T12:44:57;14.80;74.50
23231;DHT22;11784;49.818;8.632;2023-04-24T12:47:24;14.90;73.90
23231;DHT22;11784;49.818;8.632;2023-04-24T12:49:50;14.90;72.80
23231;DHT22;11784;49.818;8.632;2023-04-24T12:52:18;15.10;72.40
23231;DHT22;11784;49.818;8.632;2023-04-24T12:54:45;15.20;73.10
23231;DHT22;11784;49.818;8.632;2023-04-24T12:57:11;15.40;72.30
23231;DHT22;11784;49.818;8.632;2023-04-24T12:59:36;15.70;70.20
23231;DHT22;11784;49.818;8.632;2023-04-24T13:02:02;15.90;69.10
23231;DHT22;11784;49.818;8.632;2023-04-24T13:04:28;16.10;67.70
23231;DHT22;11784;49.818;8.632;2023-04-24T13:06:53;16.30;68.10
23231;DHT22;11784;49.818;8.632;2023-04-24T13:09:18;16.60;66.50
23231;DHT22;11784;49.818;8.632;2023-04-24T13:11:44;16.80;62.30
23231;DHT22;11784;49.818;8.632;2023-04-24T13:14:09;17.00;59.60
23231;DHT22;11784;49.818;8.632;2023-04-24T13:16:35;17.10;58.00
23231;DHT22;11784;49.818;8.632;2023-04-24T13:19:00;17.20;56.70
23231;DHT22;11784;49.818;8.632;2023-04-24T13:21:26;17.30;56.60
23231;DHT22;11784;49.818;8.632;2023-04-24T13:23:52;17.70;57.30
23231;DHT22;11784;49.818;8.632;2023-04-24T13:26:18;18.40;56.30
23231;DHT22;11784;49.818;8.632;2023-04-24T13:28:43;19.10;54.30
23231;DHT22;11784;49.818;8.632;2023-04-24T13:31:09;19.70;51.90
23231;DHT22;11784;49.818;8.632;2023-04-24T13:33:34;20.40;51.20
23231;DHT22;11784;49.818;8.632;2023-04-24T13:36:01;21.20;47.80
23231;DHT22;11784;49.818;8.632;2023-04-24T13:38:26;21.50;46.50
23231;DHT22;11784;49.818;8.632;2023-04-24T13:40:52;21.30;46.10
23231;DHT22;11784;49.818;8.632;2023-04-24T13:43:17;20.90;46.70
23231;DHT22;11784;49.818;8.632;2023-04-24T13:45:43;20.40;47.90
23231;DHT22;11784;49.818;8.632;2023-04-24T13:48:08;19.90;49.40
23231;DHT22;11784;49.818;8.632;2023-04-24T13:50:34;19.50;50.30
23231;DHT22;11784;49.818;8.632;2023-04-24T13:53:00;19.20;50.60
23231;DHT22;11784;49.818;8.632;2023-04-24T13:55:28;18.90;51.60
23231;DHT22;11784;49.818;8.632;2023-04-24T13:57:54;18.60;51.80
23231;DHT22;11784;49.818;8.632;2023-04-24T14:00:21;18.40;51.60
23231;DHT22;11784;49.818;8.632;2023-04-24T14:02:46;18.20;52.50
23231;DHT22;11784;49.818;8.632;2023-04-24T14:05:13;18.00;52.70
23231;DHT22;11784;49.818;8.632;2023-04-24T14:07:41;17.90;53.40
23231;DHT22;11784;49.818;8.632;2023-04-24T14:10:07;17.70;53.30
23231;DHT22;11784;49.818;8.632;2023-04-24T14:12:33;17.60;54.70
23231;DHT22;11784;49.818;8.632;2023-04-24T14:14:59;17.40;54.80
23231;DHT22;11784;49.818;8.632;2023-04-24T14:17:24;17.40;53.90
23231;DHT22;11784;49.818;8.632;2023-04-24T14:19:50;17.30;54.10
23231;DHT22;11784;49.818;8.632;2023-04-24T14:22:17;17.20;54.20
23231;DHT22;11784;49.818;8.632;2023-04-24T14:24:42;17.10;53.80
23231;DHT22;11784;49.818;8.632;2023-04-24T14:27:08;16.90;54.40
23231;DHT22;11784;49.818;8.632;2023-04-24T14:29:34;16.90;55.40
23231;DHT22;11784;49.818;8.632;2023-04-24T14:31:59;16.70;55.70
23231;DHT22;11784;49.818;8.632;2023-04-24T14:34:25;16.70;56.10
23231;DHT22;11784;49.818;8.632;2023-04-24T14:36:50;16.60;56.20
23231;DHT22;11784;49.818;8.632;2023-04-24T14:39:16;16.50;56.60
23231;DHT22;11784;49.818;8.632;2023-04-24T14:41:41;16.50;57.10
23231;DHT22;11784;49.818;8.632;2023-04-24T14:44:07;16.40;57.50
23231;DHT22;11784;49.818;8.632;2023-04-24T14:46:32;16.40;57.50
23231;DHT22;11784;49.818;8.632;2023-04-24T14:48:58;16.30;56.80
23231;DHT22;11784;49.818;8.632;2023-04-24T14:51:24;16.30;57.20
23231;DHT22;11784;49.818;8.632;2023-04-24T14:53:50;16.30;57.20
23231;DHT22;11784;49.818;8.632;2023-04-24T14:56:16;16.30;56.10
23231;DHT22;11784;49.818;8.632;2023-04-24T14:58:41;16.20;56.40
23231;DHT22;11784;49.818;8.632;2023-04-24T15:01:07;16.20;56.10
23231;DHT22;11784;49.818;8.632;2023-04-24T15:03:32;16.20;56.00
23231;DHT22;11784;49.818;8.632;2023-04-24T15:05:58;16.10;55.60
23231;DHT22;11784;49.818;8.632;2023-04-24T15:08:23;16.00;56.30
23231;DHT22;11784;49.818;8.632;2023-04-24T15:10:49;15.90;56.50
23231;DHT22;11784;49.818;8.632;2023-04-24T15:13:15;15.90;56.50
23231;DHT22;11784;49.818;8.632;2023-04-24T15:15:40;15.80;56.50
23231;DHT22;11784;49.818;8.632;2023-04-24T15:18:08;15.70;56.90
23231;DHT22;11784;49.818;8.632;2023-04-24T15:20:36;15.70;57.60
23231;DHT22;11784;49.818;8.632;2023-04-24T15:23:01;15.70;57.80
23231;DHT22;11784;49.818;8.632;2023-04-24T15:25:27;15.70;58.00
23231;DHT22;11784;49.818;8.632;2023-04-24T15:27:53;15.80;58.40
23231;DHT22;11784;49.818;8.632;2023-04-24T15:30:18;15.80;58.20
23231;DHT22;11784;49.818;8.632;2023-04-24T15:32:44;16.00;58.10
23231;DHT22;11784;49.818;8.632;2023-04-24T15:35:09;16.20;57.40
23231;DHT22;11784;49.818;8.632;2023-04-24T15:37:36;16.40;57.00
23231;DHT22;11784;49.818;8.632;2023-04-24T15:40:01;16.50;56.50
23231;DHT22;11784;49.818;8.632;2023-04-24T15:42:29;16.70;56.10